Sylvan Springs, Alabama
Current Conditions -  °F | °C
As of 5:53 AM on Thursday 27 Nov 2014 (Local Time) from KBHM Reporting Station
Few Clouds Few Clouds  
Wind Chill: 33°   Ceiling: Unl
Heat Index: 39°   Visibility: 10mi
Dew Point: 31°   Wind: 9mph
Humidity: 73%   Direction: 310°NW
Pressure: 30.29"   Gusts: NA
Location:  33.5392°N, 87.0555°W
Report Text: KBHM 271153Z 31008KT 10SM FEW034 04/M01 A3029 RMK AO2 SLP257 T00391006 10067 20033 53021
Loading
Personal Weather Stations






























Interactive Weather Map New forecast layout! Learn more

10-Day Weather Forecast

Advertisements
Track Severe Weather on mobile